sensor_id;sensor_type;location;lat;lon;timestamp;pressure;altitude;pressure_sealevel;temperature;humidity
7433;BME280;32233;49.500;7.764;2023-03-24T00:00:16;97463.81;;;9.26;100.00
7433;BME280;32233;49.500;7.764;2023-03-24T00:02:43;97453.47;;;9.25;100.00
7433;BME280;32233;49.500;7.764;2023-03-24T00:05:20;97457.84;;;9.12;100.00
7433;BME280;32233;49.500;7.764;2023-03-24T00:07:48;97448.53;;;9.10;100.00
7433;BME280;32233;49.500;7.764;2023-03-24T00:10:23;97437.91;;;8.98;100.00
7433;BME280;32233;49.500;7.764;2023-03-24T00:13:05;97436.50;;;8.96;100.00
7433;BME280;32233;49.500;7.764;2023-03-24T00:15:31;97437.25;;;9.03;100.00
7433;BME280;32233;49.500;7.764;2023-03-24T00:17:59;97432.16;;;8.83;100.00
7433;BME280;32233;49.500;7.764;2023-03-24T00:20:26;97430.22;;;8.65;100.00
7433;BME280;32233;49.500;7.764;2023-03-24T00:22:55;97421.19;;;8.54;100.00
7433;BME280;32233;49.500;7.764;2023-03-24T00:25:30;97422.91;;;8.42;100.00
7433;BME280;32233;49.500;7.764;2023-03-24T00:28:02;97417.84;;;8.34;100.00
7433;BME280;32233;49.500;7.764;2023-03-24T00:30:34;97413.41;;;8.28;100.00
7433;BME280;32233;49.500;7.764;2023-03-24T00:33:01;97417.47;;;8.30;100.00
7433;BME280;32233;49.500;7.764;2023-03-24T00:35:30;97420.75;;;8.19;100.00
7433;BME280;32233;49.500;7.764;2023-03-24T00:37:56;97413.91;;;8.18;100.00
7433;BME280;32233;49.500;7.764;2023-03-24T00:40:26;97416.03;;;8.34;100.00
7433;BME280;32233;49.500;7.764;2023-03-24T00:42:53;97414.41;;;8.40;100.00
7433;BME280;32233;49.500;7.764;2023-03-24T00:45:21;97416.97;;;8.53;100.00
7433;BME280;32233;49.500;7.764;2023-03-24T00:47:51;97425.09;;;8.77;100.00
7433;BME280;32233;49.500;7.764;2023-03-24T00:50:21;97419.88;;;8.70;100.00
7433;BME280;32233;49.500;7.764;2023-03-24T00:52:54;97427.44;;;8.85;100.00
7433;BME280;32233;49.500;7.764;2023-03-24T00:55:20;97411.38;;;8.93;100.00
7433;BME280;32233;49.500;7.764;2023-03-24T00:57:49;97402.22;;;8.96;100.00
7433;BME280;32233;49.500;7.764;2023-03-24T01:00:19;97408.91;;;8.98;100.00
7433;BME280;32233;49.500;7.764;2023-03-24T01:02:52;97403.84;;;8.97;100.00
7433;BME280;32233;49.500;7.764;2023-03-24T01:05:21;97385.66;;;8.88;100.00
7433;BME280;32233;49.500;7.764;2023-03-24T01:07:49;97398.69;;;8.83;100.00
7433;BME280;32233;49.500;7.764;2023-03-24T01:10:20;97399.66;;;8.89;100.00
7433;BME280;32233;49.500;7.764;2023-03-24T01:12:47;97392.63;;;8.83;100.00
7433;BME280;32233;49.500;7.764;2023-03-24T01:15:17;97389.06;;;8.96;100.00
7433;BME280;32233;49.500;7.764;2023-03-24T01:17:44;97392.25;;;8.98;100.00
7433;BME280;32233;49.500;7.764;2023-03-24T01:20:12;97389.97;;;9.08;100.00
7433;BME280;32233;49.500;7.764;2023-03-24T01:22:41;97388.94;;;9.09;100.00
7433;BME280;32233;49.500;7.764;2023-03-24T01:25:19;97380.38;;;9.13;100.00
7433;BME280;32233;49.500;7.764;2023-03-24T01:27:48;97382.63;;;9.10;100.00
7433;BME280;32233;49.500;7.764;2023-03-24T01:30:17;97381.03;;;9.09;100.00
7433;BME280;32233;49.500;7.764;2023-03-24T01:32:44;97379.31;;;8.96;100.00
7433;BME280;32233;49.500;7.764;2023-03-24T01:35:11;97368.72;;;9.03;100.00
7433;BME280;32233;49.500;7.764;2023-03-24T01:37:39;97369.91;;;9.07;100.00
7433;BME280;32233;49.500;7.764;2023-03-24T01:40:07;97363.47;;;9.21;100.00
7433;BME280;32233;49.500;7.764;2023-03-24T01:42:37;97366.19;;;9.14;100.00
7433;BME280;32233;49.500;7.764;2023-03-24T01:45:41;97351.22;;;9.08;100.00
7433;BME280;32233;49.500;7.764;2023-03-24T01:48:19;97345.72;;;9.10;100.00
7433;BME280;32233;49.500;7.764;2023-03-24T01:50:58;97332.34;;;9.11;100.00
7433;BME280;32233;49.500;7.764;2023-03-24T01:53:26;97339.25;;;8.87;100.00
7433;BME280;32233;49.500;7.764;2023-03-24T01:55:53;97325.75;;;8.77;100.00
7433;BME280;32233;49.500;7.764;2023-03-24T01:58:27;97320.06;;;8.80;100.00
7433;BME280;32233;49.500;7.764;2023-03-24T02:01:07;97311.81;;;8.95;100.00
7433;BME280;32233;49.500;7.764;2023-03-24T02:03:43;97297.47;;;9.09;100.00
7433;BME280;32233;49.500;7.764;2023-03-24T02:06:12;97298.50;;;9.08;100.00
7433;BME280;32233;49.500;7.764;2023-03-24T02:08:47;97294.47;;;9.06;100.00
7433;BME280;32233;49.500;7.764;2023-03-24T02:11:15;97294.03;;;9.09;100.00
7433;BME280;32233;49.500;7.764;2023-03-24T02:13:49;97295.91;;;9.02;100.00
7433;BME280;32233;49.500;7.764;2023-03-24T02:28:11;97303.63;;;9.22;100.00
7433;BME280;32233;49.500;7.764;2023-03-24T02:31:07;97291.03;;;9.72;100.00
7433;BME280;32233;49.500;7.764;2023-03-24T02:36:55;97296.16;;;10.27;100.00
7433;BME280;32233;49.500;7.764;2023-03-24T02:42:35;97295.84;;;10.47;100.00
7433;BME280;32233;49.500;7.764;2023-03-24T02:45:44;97288.63;;;10.66;100.00
7433;BME280;32233;49.500;7.764;2023-03-24T02:48:36;97290.09;;;10.85;100.00
7433;BME280;32233;49.500;7.764;2023-03-24T02:51:23;97285.63;;;10.74;100.00
7433;BME280;32233;49.500;7.764;2023-03-24T02:59:53;97287.56;;;10.79;100.00
7433;BME280;32233;49.500;7.764;2023-03-24T03:02:47;97299.84;;;10.85;100.00
7433;BME280;32233;49.500;7.764;2023-03-24T03:05:22;97289.31;;;10.61;100.00
7433;BME280;32233;49.500;7.764;2023-03-24T03:07:54;97291.47;;;10.53;100.00
7433;BME280;32233;49.500;7.764;2023-03-24T03:10:26;97296.97;;;10.39;100.00
7433;BME280;32233;49.500;7.764;2023-03-24T03:12:58;97292.94;;;10.49;100.00
7433;BME280;32233;49.500;7.764;2023-03-24T03:15:33;97290.81;;;10.57;100.00
7433;BME280;32233;49.500;7.764;2023-03-24T03:18:12;97291.59;;;10.58;100.00
7433;BME280;32233;49.500;7.764;2023-03-24T03:20:43;97289.41;;;10.55;100.00
7433;BME280;32233;49.500;7.764;2023-03-24T03:23:19;97287.22;;;10.52;100.00
7433;BME280;32233;49.500;7.764;2023-03-24T03:25:53;97283.53;;;10.53;100.00
7433;BME280;32233;49.500;7.764;2023-03-24T03:28:25;97294.09;;;10.53;100.00
7433;BME280;32233;49.500;7.764;2023-03-24T03:30:57;97301.56;;;10.56;100.00
7433;BME280;32233;49.500;7.764;2023-03-24T03:33:30;97295.25;;;10.57;100.00
7433;BME280;32233;49.500;7.764;2023-03-24T03:39:04;97306.16;;;10.49;100.00
7433;BME280;32233;49.500;7.764;2023-03-24T03:41:37;97314.69;;;10.51;100.00
7433;BME280;32233;49.500;7.764;2023-03-24T03:44:05;97316.53;;;10.50;100.00
7433;BME280;32233;49.500;7.764;2023-03-24T03:46:35;97321.81;;;10.50;100.00
7433;BME280;32233;49.500;7.764;2023-03-24T03:49:06;97322.94;;;10.43;100.00
7433;BME280;32233;49.500;7.764;2023-03-24T03:51:33;97323.84;;;10.36;100.00
7433;BME280;32233;49.500;7.764;2023-03-24T03:54:09;97326.03;;;10.39;100.00
7433;BME280;32233;49.500;7.764;2023-03-24T03:56:37;97328.91;;;10.38;100.00
7433;BME280;32233;49.500;7.764;2023-03-24T03:59:36;97336.03;;;10.37;100.00
7433;BME280;32233;49.500;7.764;2023-03-24T04:05:27;97339.56;;;10.31;100.00
7433;BME280;32233;49.500;7.764;2023-03-24T04:08:19;97346.00;;;10.35;100.00
7433;BME280;32233;49.500;7.764;2023-03-24T04:20:05;97359.88;;;10.31;100.00
7433;BME280;32233;49.500;7.764;2023-03-24T04:31:34;97371.66;;;10.16;100.00
7433;BME280;32233;49.500;7.764;2023-03-24T04:34:12;97368.53;;;10.20;100.00
7433;BME280;32233;49.500;7.764;2023-03-24T04:36:45;97355.56;;;10.18;100.00
7433;BME280;32233;49.500;7.764;2023-03-24T04:39:26;97361.66;;;10.18;100.00
7433;BME280;32233;49.500;7.764;2023-03-24T04:42:01;97365.53;;;10.16;100.00
7433;BME280;32233;49.500;7.764;2023-03-24T04:44:30;97343.63;;;10.15;100.00
7433;BME280;32233;49.500;7.764;2023-03-24T04:47:20;97348.22;;;10.08;100.00
7433;BME280;32233;49.500;7.764;2023-03-24T04:50:05;97341.78;;;10.16;100.00
7433;BME280;32233;49.500;7.764;2023-03-24T04:52:32;97327.78;;;10.15;100.00
7433;BME280;32233;49.500;7.764;2023-03-24T04:55:02;97325.81;;;10.11;100.00
7433;BME280;32233;49.500;7.764;2023-03-24T04:57:37;97315.56;;;10.03;100.00
7433;BME280;32233;49.500;7.764;2023-03-24T05:00:04;97311.25;;;10.08;100.00
7433;BME280;32233;49.500;7.764;2023-03-24T05:02:33;97309.25;;;10.04;100.00
7433;BME280;32233;49.500;7.764;2023-03-24T05:05:08;97310.59;;;9.95;100.00
7433;BME280;32233;49.500;7.764;2023-03-24T05:07:40;97302.69;;;9.95;100.00
7433;BME280;32233;49.500;7.764;2023-03-24T05:10:10;97306.00;;;9.90;100.00
7433;BME280;32233;49.500;7.764;2023-03-24T05:12:46;97316.56;;;9.90;100.00
7433;BME280;32233;49.500;7.764;2023-03-24T05:15:15;97313.38;;;9.88;100.00
7433;BME280;32233;49.500;7.764;2023-03-24T05:17:43;97305.34;;;9.95;100.00
7433;BME280;32233;49.500;7.764;2023-03-24T05:20:10;97298.22;;;9.95;100.00
7433;BME280;32233;49.500;7.764;2023-03-24T05:22:40;97301.34;;;10.04;100.00
7433;BME280;32233;49.500;7.764;2023-03-24T05:25:07;97307.88;;;10.01;100.00
7433;BME280;32233;49.500;7.764;2023-03-24T05:27:33;97299.75;;;10.14;100.00
7433;BME280;32233;49.500;7.764;2023-03-24T05:30:12;97301.59;;;10.14;100.00
7433;BME280;32233;49.500;7.764;2023-03-24T05:32:39;97305.84;;;10.15;100.00
7433;BME280;32233;49.500;7.764;2023-03-24T05:35:07;97306.66;;;10.15;100.00
7433;BME280;32233;49.500;7.764;2023-03-24T05:37:33;97309.66;;;10.19;100.00
7433;BME280;32233;49.500;7.764;2023-03-24T05:40:01;97316.31;;;10.22;100.00
7433;BME280;32233;49.500;7.764;2023-03-24T05:42:43;97308.97;;;10.24;100.00
7433;BME280;32233;49.500;7.764;2023-03-24T05:45:12;97322.56;;;10.27;100.00
7433;BME280;32233;49.500;7.764;2023-03-24T05:47:39;97317.06;;;10.29;100.00
7433;BME280;32233;49.500;7.764;2023-03-24T05:50:06;97308.66;;;10.32;100.00
7433;BME280;32233;49.500;7.764;2023-03-24T05:52:33;97320.03;;;10.32;100.00
7433;BME280;32233;49.500;7.764;2023-03-24T05:55:26;97314.25;;;10.24;100.00
7433;BME280;32233;49.500;7.764;2023-03-24T05:58:01;97319.47;;;10.30;100.00
7433;BME280;32233;49.500;7.764;2023-03-24T06:00:34;97317.88;;;10.29;100.00
7433;BME280;32233;49.500;7.764;2023-03-24T06:03:08;97324.88;;;10.35;100.00
7433;BME280;32233;49.500;7.764;2023-03-24T06:05:55;97323.72;;;10.31;100.00
7433;BME280;32233;49.500;7.764;2023-03-24T06:08:22;97320.63;;;10.34;100.00
7433;BME280;32233;49.500;7.764;2023-03-24T06:10:50;97324.19;;;10.40;100.00
7433;BME280;32233;49.500;7.764;2023-03-24T06:13:20;97319.13;;;10.38;100.00
7433;BME280;32233;49.500;7.764;2023-03-24T06:15:48;97328.22;;;10.43;100.00
7433;BME280;32233;49.500;7.764;2023-03-24T06:18:35;97333.25;;;10.44;100.00
7433;BME280;32233;49.500;7.764;2023-03-24T06:21:11;97333.16;;;10.51;100.00
7433;BME280;32233;49.500;7.764;2023-03-24T06:23:40;97331.56;;;10.50;100.00
7433;BME280;32233;49.500;7.764;2023-03-24T06:26:10;97330.28;;;10.52;100.00
7433;BME280;32233;49.500;7.764;2023-03-24T06:28:47;97334.22;;;10.50;100.00
7433;BME280;32233;49.500;7.764;2023-03-24T06:31:18;97333.06;;;10.57;100.00
7433;BME280;32233;49.500;7.764;2023-03-24T06:33:52;97325.16;;;10.57;100.00
7433;BME280;32233;49.500;7.764;2023-03-24T06:36:19;97332.59;;;10.60;100.00
7433;BME280;32233;49.500;7.764;2023-03-24T06:38:46;97328.69;;;10.51;100.00
7433;BME280;32233;49.500;7.764;2023-03-24T06:41:16;97337.66;;;10.50;100.00
7433;BME280;32233;49.500;7.764;2023-03-24T06:43:43;97330.97;;;10.48;100.00
7433;BME280;32233;49.500;7.764;2023-03-24T06:46:10;97332.09;;;10.40;100.00
7433;BME280;32233;49.500;7.764;2023-03-24T06:48:41;97327.75;;;10.34;100.00
7433;BME280;32233;49.500;7.764;2023-03-24T06:51:08;97331.53;;;10.38;100.00
7433;BME280;32233;49.500;7.764;2023-03-24T06:53:36;97340.38;;;10.44;100.00
7433;BME280;32233;49.500;7.764;2023-03-24T06:56:04;97343.97;;;10.49;100.00
7433;BME280;32233;49.500;7.764;2023-03-24T06:58:37;97345.13;;;10.53;100.00
7433;BME280;32233;49.500;7.764;2023-03-24T07:01:06;97347.78;;;10.53;100.00
7433;BME280;32233;49.500;7.764;2023-03-24T07:03:35;97343.84;;;10.44;100.00
7433;BME280;32233;49.500;7.764;2023-03-24T07:06:15;97340.38;;;10.44;100.00
7433;BME280;32233;49.500;7.764;2023-03-24T07:08:43;97337.75;;;10.44;100.00
7433;BME280;32233;49.500;7.764;2023-03-24T07:11:10;97356.34;;;10.37;100.00
7433;BME280;32233;49.500;7.764;2023-03-24T07:13:45;97348.19;;;10.38;100.00
7433;BME280;32233;49.500;7.764;2023-03-24T07:16:11;97366.34;;;10.35;100.00
7433;BME280;32233;49.500;7.764;2023-03-24T07:18:39;97366.22;;;10.30;100.00
7433;BME280;32233;49.500;7.764;2023-03-24T07:21:06;97347.72;;;10.30;100.00
7433;BME280;32233;49.500;7.764;2023-03-24T07:23:34;97361.97;;;10.29;100.00
7433;BME280;32233;49.500;7.764;2023-03-24T07:26:19;97365.53;;;10.34;100.00
7433;BME280;32233;49.500;7.764;2023-03-24T07:28:46;97366.34;;;10.35;100.00
7433;BME280;32233;49.500;7.764;2023-03-24T07:31:22;97376.34;;;10.33;100.00
7433;BME280;32233;49.500;7.764;2023-03-24T07:33:56;97378.03;;;10.27;100.00
7433;BME280;32233;49.500;7.764;2023-03-24T07:36:27;97368.06;;;10.29;100.00
7433;BME280;32233;49.500;7.764;2023-03-24T07:38:55;97367.81;;;10.31;100.00
7433;BME280;32233;49.500;7.764;2023-03-24T07:41:28;97374.03;;;10.36;100.00
7433;BME280;32233;49.500;7.764;2023-03-24T07:43:59;97370.03;;;10.46;100.00
7433;BME280;32233;49.500;7.764;2023-03-24T07:46:45;97380.16;;;10.60;100.00
7433;BME280;32233;49.500;7.764;2023-03-24T07:49:12;97368.69;;;10.66;100.00
7433;BME280;32233;49.500;7.764;2023-03-24T07:52:04;97370.66;;;10.71;100.00
7433;BME280;32233;49.500;7.764;2023-03-24T07:54:35;97375.69;;;10.73;100.00
7433;BME280;32233;49.500;7.764;2023-03-24T07:57:02;97381.13;;;10.78;100.00
7433;BME280;32233;49.500;7.764;2023-03-24T07:59:29;97392.59;;;10.72;100.00
7433;BME280;32233;49.500;7.764;2023-03-24T08:02:25;97384.22;;;10.75;100.00
7433;BME280;32233;49.500;7.764;2023-03-24T08:04:59;97389.72;;;10.73;100.00
7433;BME280;32233;49.500;7.764;2023-03-24T08:07:45;97394.31;;;10.66;100.00
7433;BME280;32233;49.500;7.764;2023-03-24T08:10:15;97393.41;;;10.72;100.00
7433;BME280;32233;49.500;7.764;2023-03-24T08:12:42;97390.06;;;10.65;100.00
7433;BME280;32233;49.500;7.764;2023-03-24T08:15:08;97388.56;;;10.57;100.00
7433;BME280;32233;49.500;7.764;2023-03-24T08:17:35;97383.16;;;10.64;100.00
7433;BME280;32233;49.500;7.764;2023-03-24T08:20:03;97386.59;;;10.64;100.00
7433;BME280;32233;49.500;7.764;2023-03-24T08:22:33;97391.56;;;10.73;100.00
7433;BME280;32233;49.500;7.764;2023-03-24T08:25:00;97384.56;;;10.66;100.00
7433;BME280;32233;49.500;7.764;2023-03-24T08:27:26;97386.50;;;10.71;100.00
7433;BME280;32233;49.500;7.764;2023-03-24T08:29:53;97388.03;;;10.79;100.00
7433;BME280;32233;49.500;7.764;2023-03-24T08:32:19;97392.84;;;10.82;100.00
7433;BME280;32233;49.500;7.764;2023-03-24T08:34:46;97390.06;;;10.77;100.00
7433;BME280;32233;49.500;7.764;2023-03-24T08:37:12;97393.03;;;10.69;100.00
7433;BME280;32233;49.500;7.764;2023-03-24T08:39:39;97397.41;;;10.63;100.00
7433;BME280;32233;49.500;7.764;2023-03-24T08:42:05;97405.47;;;10.68;100.00
7433;BME280;32233;49.500;7.764;2023-03-24T08:44:32;97391.09;;;10.64;100.00
7433;BME280;32233;49.500;7.764;2023-03-24T08:47:02;97406.16;;;10.75;100.00
7433;BME280;32233;49.500;7.764;2023-03-24T08:49:28;97390.56;;;10.97;100.00
7433;BME280;32233;49.500;7.764;2023-03-24T08:51:55;97399.19;;;11.04;100.00
7433;BME280;32233;49.500;7.764;2023-03-24T08:54:22;97396.88;;;11.20;100.00
7433;BME280;32233;49.500;7.764;2023-03-24T08:56:51;97405.63;;;11.20;100.00
7433;BME280;32233;49.500;7.764;2023-03-24T08:59:18;97396.31;;;11.18;100.00
7433;BME280;32233;49.500;7.764;2023-03-24T09:01:44;97395.84;;;11.21;100.00
7433;BME280;32233;49.500;7.764;2023-03-24T09:04:11;97406.88;;;11.29;100.00
7433;BME280;32233;49.500;7.764;2023-03-24T09:06:37;97425.75;;;11.21;100.00
7433;BME280;32233;49.500;7.764;2023-03-24T09:09:04;97412.97;;;11.30;100.00
7433;BME280;32233;49.500;7.764;2023-03-24T09:11:30;97421.50;;;11.20;100.00
7433;BME280;32233;49.500;7.764;2023-03-24T09:13:57;97420.91;;;10.95;100.00
7433;BME280;32233;49.500;7.764;2023-03-24T09:16:23;97417.59;;;10.99;100.00
7433;BME280;32233;49.500;7.764;2023-03-24T09:18:50;97420.69;;;10.96;100.00
7433;BME280;32233;49.500;7.764;2023-03-24T09:21:17;97430.34;;;10.90;100.00
7433;BME280;32233;49.500;7.764;2023-03-24T09:23:43;97419.53;;;10.92;100.00
7433;BME280;32233;49.500;7.764;2023-03-24T09:26:10;97428.88;;;10.64;100.00
7433;BME280;32233;49.500;7.764;2023-03-24T09:28:36;97427.25;;;10.52;100.00
7433;BME280;32233;49.500;7.764;2023-03-24T09:31:04;97433.56;;;10.51;100.00
7433;BME280;32233;49.500;7.764;2023-03-24T09:33:31;97433.56;;;10.51;100.00
7433;BME280;32233;49.500;7.764;2023-03-24T09:36:01;97435.94;;;10.40;100.00
7433;BME280;32233;49.500;7.764;2023-03-24T09:38:28;97432.50;;;10.40;100.00
7433;BME280;32233;49.500;7.764;2023-03-24T09:40:57;97437.63;;;10.53;100.00
7433;BME280;32233;49.500;7.764;2023-03-24T09:43:35;97434.31;;;10.70;100.00
7433;BME280;32233;49.500;7.764;2023-03-24T09:46:05;97440.53;;;10.75;100.00
7433;BME280;32233;49.500;7.764;2023-03-24T09:48:44;97432.59;;;10.75;100.00
7433;BME280;32233;49.500;7.764;2023-03-24T09:51:25;97436.31;;;10.86;100.00
7433;BME280;32233;49.500;7.764;2023-03-24T09:54:27;97514.53;;;10.75;100.00
7433;BME280;32233;49.500;7.764;2023-03-24T09:56:56;97519.16;;;10.31;100.00
7433;BME280;32233;49.500;7.764;2023-03-24T09:59:39;97507.47;;;9.65;100.00
7433;BME280;32233;49.500;7.764;2023-03-24T10:02:11;97498.38;;;9.43;100.00
7433;BME280;32233;49.500;7.764;2023-03-24T10:04:39;97498.28;;;9.50;100.00
7433;BME280;32233;49.500;7.764;2023-03-24T10:07:20;97503.22;;;9.64;100.00
7433;BME280;32233;49.500;7.764;2023-03-24T10:09:55;97513.50;;;9.73;100.00
7433;BME280;32233;49.500;7.764;2023-03-24T10:12:34;97509.91;;;9.85;100.00
7433;BME280;32233;49.500;7.764;2023-03-24T10:31:16;97555.53;;;10.11;100.00
7433;BME280;32233;49.500;7.764;2023-03-24T10:33:45;97555.06;;;10.39;100.00
7433;BME280;32233;49.500;7.764;2023-03-24T10:36:17;97557.56;;;10.34;100.00
7433;BME280;32233;49.500;7.764;2023-03-24T10:38:44;97569.34;;;10.13;100.00
7433;BME280;32233;49.500;7.764;2023-03-24T10:41:19;97573.06;;;10.05;100.00
7433;BME280;32233;49.500;7.764;2023-03-24T10:43:48;97568.81;;;10.23;100.00
7433;BME280;32233;49.500;7.764;2023-03-24T10:46:18;97572.34;;;10.16;100.00
7433;BME280;32233;49.500;7.764;2023-03-24T10:48:51;97582.38;;;10.33;100.00
7433;BME280;32233;49.500;7.764;2023-03-24T10:51:24;97573.19;;;10.35;100.00
7433;BME280;32233;49.500;7.764;2023-03-24T10:54:14;97563.47;;;10.66;100.00
7433;BME280;32233;49.500;7.764;2023-03-24T10:56:44;97560.00;;;10.96;100.00
7433;BME280;32233;49.500;7.764;2023-03-24T11:04:36;97553.56;;;10.91;100.00
7433;BME280;32233;49.500;7.764;2023-03-24T11:07:15;97559.94;;;11.02;100.00
7433;BME280;32233;49.500;7.764;2023-03-24T11:09:44;97565.06;;;11.39;100.00
7433;BME280;32233;49.500;7.764;2023-03-24T11:12:23;97572.56;;;11.54;100.00
7433;BME280;32233;49.500;7.764;2023-03-24T11:14:49;97577.88;;;11.12;100.00
7433;BME280;32233;49.500;7.764;2023-03-24T11:17:19;97573.31;;;10.89;100.00
7433;BME280;32233;49.500;7.764;2023-03-24T11:19:52;97586.38;;;11.02;100.00
7433;BME280;32233;49.500;7.764;2023-03-24T11:22:19;97591.50;;;11.27;100.00
7433;BME280;32233;49.500;7.764;2023-03-24T11:24:51;97584.50;;;11.45;100.00
7433;BME280;32233;49.500;7.764;2023-03-24T11:27:20;97584.94;;;11.30;100.00
7433;BME280;32233;49.500;7.764;2023-03-24T11:29:52;97588.88;;;11.51;100.00
7433;BME280;32233;49.500;7.764;2023-03-24T11:32:23;97578.09;;;11.52;100.00
7433;BME280;32233;49.500;7.764;2023-03-24T11:35:02;97585.09;;;11.47;100.00
7433;BME280;32233;49.500;7.764;2023-03-24T11:37:33;97589.13;;;11.49;100.00
7433;BME280;32233;49.500;7.764;2023-03-24T11:40:16;97595.91;;;11.45;100.00
7433;BME280;32233;49.500;7.764;2023-03-24T11:42:46;97583.94;;;11.54;100.00
7433;BME280;32233;49.500;7.764;2023-03-24T11:45:20;97593.03;;;11.58;100.00
7433;BME280;32233;49.500;7.764;2023-03-24T11:47:50;97567.25;;;11.42;100.00
7433;BME280;32233;49.500;7.764;2023-03-24T11:50:23;97571.69;;;11.18;100.00
7433;BME280;32233;49.500;7.764;2023-03-24T11:53:20;97564.38;;;11.32;100.00
7433;BME280;32233;49.500;7.764;2023-03-24T12:12:37;97562.81;;;11.89;100.00
7433;BME280;32233;49.500;7.764;2023-03-24T12:21:23;97564.38;;;12.37;100.00
7433;BME280;32233;49.500;7.764;2023-03-24T12:23:58;97567.53;;;12.11;100.00
7433;BME280;32233;49.500;7.764;2023-03-24T12:26:33;97579.41;;;11.97;100.00
7433;BME280;32233;49.500;7.764;2023-03-24T12:37:10;97554.38;;;11.57;100.00
7433;BME280;32233;49.500;7.764;2023-03-24T12:40:05;97550.34;;;11.43;99.95
7433;BME280;32233;49.500;7.764;2023-03-24T12:42:44;97544.94;;;11.61;99.91
7433;BME280;32233;49.500;7.764;2023-03-24T12:50:53;97562.84;;;11.24;100.00
7433;BME280;32233;49.500;7.764;2023-03-24T12:56:18;97547.13;;;11.53;95.53
7433;BME280;32233;49.500;7.764;2023-03-24T13:01:38;97542.53;;;11.60;92.83
7433;BME280;32233;49.500;7.764;2023-03-24T13:04:10;97533.38;;;14.13;79.48
7433;BME280;32233;49.500;7.764;2023-03-24T13:06:49;97527.56;;;16.31;67.55
7433;BME280;32233;49.500;7.764;2023-03-24T13:09:35;97522.41;;;18.10;60.79
7433;BME280;32233;49.500;7.764;2023-03-24T13:12:40;97518.03;;;18.39;56.24
7433;BME280;32233;49.500;7.764;2023-03-24T13:17:41;97515.72;;;19.16;54.82
7433;BME280;32233;49.500;7.764;2023-03-24T13:20:23;97521.41;;;19.44;53.49
7433;BME280;32233;49.500;7.764;2023-03-24T13:22:51;97517.66;;;19.45;54.86
7433;BME280;32233;49.500;7.764;2023-03-24T13:25:32;97519.50;;;19.10;54.44
7433;BME280;32233;49.500;7.764;2023-03-24T13:28:07;97520.72;;;18.89;51.65
7433;BME280;32233;49.500;7.764;2023-03-24T13:30:38;97521.41;;;17.75;55.42
7433;BME280;32233;49.500;7.764;2023-03-24T13:33:24;97525.19;;;16.34;59.44
7433;BME280;32233;49.500;7.764;2023-03-24T13:38:40;97522.22;;;15.46;64.91
7433;BME280;32233;49.500;7.764;2023-03-24T13:41:17;97509.91;;;15.35;69.44
7433;BME280;32233;49.500;7.764;2023-03-24T13:44:08;97503.94;;;14.91;64.06
7433;BME280;32233;49.500;7.764;2023-03-24T13:46:41;97510.59;;;14.44;62.91
7433;BME280;32233;49.500;7.764;2023-03-24T13:49:13;97501.59;;;14.45;64.77
7433;BME280;32233;49.500;7.764;2023-03-24T13:51:43;97490.81;;;14.57;62.50
7433;BME280;32233;49.500;7.764;2023-03-24T13:54:19;97489.31;;;14.44;60.70
7433;BME280;32233;49.500;7.764;2023-03-24T13:57:00;97490.09;;;14.18;60.59
7433;BME280;32233;49.500;7.764;2023-03-24T13:59:30;97487.06;;;14.09;61.73
7433;BME280;32233;49.500;7.764;2023-03-24T14:02:19;97498.03;;;13.96;63.75
7433;BME280;32233;49.500;7.764;2023-03-24T14:15:31;97501.78;;;13.78;61.06
7433;BME280;32233;49.500;7.764;2023-03-24T14:23:33;97504.81;;;13.65;61.40
7433;BME280;32233;49.500;7.764;2023-03-24T14:26:00;97490.53;;;13.71;60.56
7433;BME280;32233;49.500;7.764;2023-03-24T14:28:48;97480.59;;;13.61;60.24
7433;BME280;32233;49.500;7.764;2023-03-24T14:33:54;97491.22;;;13.44;59.94
7433;BME280;32233;49.500;7.764;2023-03-24T14:36:39;97494.75;;;13.50;60.17
7433;BME280;32233;49.500;7.764;2023-03-24T14:39:22;97492.69;;;13.52;61.89
7433;BME280;32233;49.500;7.764;2023-03-24T14:41:52;97492.31;;;13.65;60.02
7433;BME280;32233;49.500;7.764;2023-03-24T14:47:20;97495.31;;;13.69;60.25
7433;BME280;32233;49.500;7.764;2023-03-24T14:49:47;97496.56;;;13.83;59.31
7433;BME280;32233;49.500;7.764;2023-03-24T14:52:20;97495.63;;;13.94;60.33
7433;BME280;32233;49.500;7.764;2023-03-24T14:55:05;97492.44;;;13.92;61.00
7433;BME280;32233;49.500;7.764;2023-03-24T14:57:41;97504.38;;;13.73;58.66
7433;BME280;32233;49.500;7.764;2023-03-24T15:00:14;97494.09;;;13.76;58.76
7433;BME280;32233;49.500;7.764;2023-03-24T15:02:43;97499.56;;;14.08;59.92
7433;BME280;32233;49.500;7.764;2023-03-24T15:07:45;97499.13;;;14.17;55.79
7433;BME280;32233;49.500;7.764;2023-03-24T15:10:14;97489.16;;;14.07;57.97
7433;BME280;32233;49.500;7.764;2023-03-24T15:12:45;97486.69;;;14.00;58.93
7433;BME280;32233;49.500;7.764;2023-03-24T15:15:15;97477.97;;;13.83;59.70
7433;BME280;32233;49.500;7.764;2023-03-24T15:17:43;97480.09;;;13.64;59.73
7433;BME280;32233;49.500;7.764;2023-03-24T15:20:27;97473.91;;;13.58;59.38
7433;BME280;32233;49.500;7.764;2023-03-24T15:22:55;97479.81;;;13.82;57.37
7433;BME280;32233;49.500;7.764;2023-03-24T15:25:26;97474.53;;;14.04;57.60
7433;BME280;32233;49.500;7.764;2023-03-24T15:27:54;97476.88;;;14.01;56.52
7433;BME280;32233;49.500;7.764;2023-03-24T15:30:22;97473.59;;;13.94;55.29
7433;BME280;32233;49.500;7.764;2023-03-24T15:32:50;97477.03;;;13.72;57.96
7433;BME280;32233;49.500;7.764;2023-03-24T15:35:19;97476.88;;;13.62;55.80
7433;BME280;32233;49.500;7.764;2023-03-24T15:37:54;97476.56;;;13.58;57.28
7433;BME280;32233;49.500;7.764;2023-03-24T15:42:55;97463.19;;;13.70;55.91
7433;BME280;32233;49.500;7.764;2023-03-24T15:45:26;97477.44;;;13.64;56.21
7433;BME280;32233;49.500;7.764;2023-03-24T15:47:54;97478.41;;;13.58;54.26
7433;BME280;32233;49.500;7.764;2023-03-24T15:53:00;97468.06;;;13.40;56.37
7433;BME280;32233;49.500;7.764;2023-03-24T15:55:30;97475.47;;;13.37;57.32
7433;BME280;32233;49.500;7.764;2023-03-24T15:57:59;97477.00;;;13.33;56.90
7433;BME280;32233;49.500;7.764;2023-03-24T16:00:30;97470.09;;;13.32;55.56